Serenade Of The Seas — C6FV8 — position and weather

sailwx.info

Track history (hours):
 
Tides and Currents Weather Stations Pressure Air Temp Water Temp Dewpoint Dewpoint Depression Visibility Wind Speed Wind Dir Waves Ship Positions

Serenade Of The Seas

Operator: Royal Caribbean Cruises Ltd

Last reported at 2017-Oct-16 00:30 UTC. Time now 2017-Oct-18 09:14 UTC.
Position N 42°44' W 070°01'.

Length 294 m; draft 8.4 m.

Type: Ship. MMSI: 311492000.

Date/timePositionNaut miles runAvg speedWind from/ knotsBaromVisibWave heightAir tempDewpointWater temp
2017-Oct-16 00:30N 42°44' W 070°01'612.6
2017-Oct-16 00:00N 42°40' W 070°07'612.6
2017-Oct-15 23:30N 42°37' W 070°14'612.9
2017-Oct-15 23:00N 42°33' W 070°22'613.0
2017-Oct-15 22:30N 42°30' W 070°29'713.2
2017-Oct-15 22:00N 42°26' W 070°37'613.1
2017-Oct-15 21:30N 42°25' W 070°45'612.6
2017-Oct-15 21:00N 42°23' W 070°53'510.7
2017-Oct-15 20:30N 42°20' W 070°60'2 3.7
2017-Oct-15 20:00N 42°21' W 071°02'0 0.0
2017-Oct-15 19:29N 42°21' W 071°02'0 0.0
2017-Oct-15 18:59N 42°21' W 071°02'0 0.0
2017-Oct-15 18:29N 42°21' W 071°02'0 0.0
2017-Oct-15 17:59N 42°21' W 071°02'0 0.0
2017-Oct-15 17:29N 42°21' W 071°02'0 0.0
2017-Oct-15 16:59N 42°21' W 071°02'0 0.0
2017-Oct-15 16:29N 42°21' W 071°02'0 0.0
2017-Oct-15 15:59N 42°21' W 071°02'0 0.0
2017-Oct-15 15:29N 42°21' W 071°02'0 0.0
2017-Oct-15 14:59N 42°21' W 071°02'0 0.0
2017-Oct-15 13:59N 42°21' W 071°02'0 0.0
2017-Oct-15 13:29N 42°21' W 071°02'0 0.0
2017-Oct-15 12:59N 42°21' W 071°02'0 0.0
2017-Oct-15 12:29N 42°21' W 071°02'0 0.0
2017-Oct-15 11:59N 42°21' W 071°02'0 0.0
2017-Oct-15 11:29N 42°21' W 071°02'0 0.0
2017-Oct-15 10:59N 42°21' W 071°02'1 2.3
2017-Oct-15 10:30N 42°21' W 071°01'4 7.7
2017-Oct-15 10:00N 42°22' W 070°56'510.0
2017-Oct-15 09:30N 42°24' W 070°50'4 8.6
2017-Oct-15 09:00N 42°23' W 070°44'510.6
2017-Oct-15 08:30N 42°22' W 070°37'510.4
2017-Oct-15 08:00N 42°21' W 070°30'5 9.6
2017-Oct-15 07:30N 42°21' W 070°23'5 9.2
2017-Oct-15 07:00N 42°21' W 070°17'510.2
2017-Oct-15 06:30N 42°20' W 070°10'510.3
2017-Oct-15 06:00N 42°20' W 070°03'710.4
2017-Oct-15 05:19N 42°21' W 069°54'1010.1
2017-Oct-15 04:20N 42°23' W 069°41'  
2017-Oct-09 08:09N 43°49' W 068°21'414.3
2017-Oct-09 07:54N 43°46' W 068°24'614.1
2017-Oct-09 07:29N 43°42' W 068°29'814.1
2017-Oct-09 06:54N 43°35' W 068°36'7913.6
2017-Oct-09 01:04N 42°45' W 070°00'113.7
2017-Oct-09 01:00N 42°44' W 070°01'713.4
2017-Oct-09 00:31N 42°40' W 070°08'713.2
2017-Oct-09 00:00N 42°36' W 070°15'713.4
2017-Oct-08 23:30N 42°33' W 070°23'713.6
2017-Oct-08 23:01N 42°29' W 070°31'713.5
2017-Oct-08 22:31N 42°26' W 070°39'713.7
2017-Oct-08 22:01N 42°24' W 070°48'612.7
2017-Oct-08 21:30N 42°22' W 070°56'4 8.0
2017-Oct-08 21:01N 42°21' W 071°01'1 1.6
2017-Oct-08 20:30N 42°21' W 071°02'0 0.0
2017-Oct-08 20:00N 42°21' W 071°02'0 0.0
2017-Oct-08 19:30N 42°21' W 071°02'0 0.0
2017-Oct-08 19:00N 42°21' W 071°02'0 0.0
2017-Oct-08 18:30N 42°21' W 071°02'0 0.0
2017-Oct-08 18:00N 42°21' W 071°02'0 0.0
2017-Oct-08 17:30N 42°21' W 071°02'0 0.0
2017-Oct-08 17:00N 42°21' W 071°02'0 0.0
2017-Oct-08 16:30N 42°21' W 071°02'0 0.0
2017-Oct-08 16:00N 42°21' W 071°02'0 0.0
2017-Oct-08 15:30N 42°21' W 071°02'0 0.0
2017-Oct-08 15:00N 42°21' W 071°02'0 0.0
2017-Oct-08 14:30N 42°21' W 071°02'0 0.0
2017-Oct-08 14:00N 42°21' W 071°02'0 0.0
2017-Oct-08 13:30N 42°21' W 071°02'0 0.0
2017-Oct-08 13:00N 42°21' W 071°02'0 0.0
2017-Oct-08 12:27N 42°21' W 071°02'0 0.0
2017-Oct-08 12:00N 42°21' W 071°02'0 0.0
2017-Oct-08 11:30N 42°21' W 071°02'0 0.0
2017-Oct-08 11:00N 42°21' W 071°02'1 1.8
2017-Oct-08 10:30N 42°21' W 071°01'4 8.3
2017-Oct-08 10:00N 42°22' W 070°55'510.2
2017-Oct-08 09:30N 42°24' W 070°49'611.6
2017-Oct-08 09:01N 42°25' W 070°41'815.7
2017-Oct-08 08:31N 42°28' W 070°32'815.8
2017-Oct-08 08:01N 42°32' W 070°23'815.7
2017-Oct-08 07:31N 42°37' W 070°14'815.6
2017-Oct-08 07:00N 42°42' W 070°06'3616.0
2017-Oct-08 04:46N 43°05' W 069°28'42 1.8
2017-Oct-07 04:44N 43°33' W 068°44'2 9.6
2017-Oct-07 04:30N 43°32' W 068°47'  
Track history (hours):
 
Tides and Currents Weather Stations Pressure Air Temp Water Temp Dewpoint Dewpoint Depression Visibility Wind Speed Wind Dir Waves Ship Positions

Serenade Of The Seas

Operator: Royal Caribbean Cruises Ltd

Last reported at 2017-Oct-16 00:30 UTC. Time now 2017-Oct-18 09:14 UTC.
Position N 42°44' W 070°01'.

Length 294 m; draft 8.4 m.

Type: Ship. MMSI: 311492000.

Date/timePositionNaut miles runAvg speedWind from/ knotsBaromVisibWave heightAir tempDewpointWater temp
2017-Oct-16 00:30N 42°44' W 070°01'612.6
2017-Oct-16 00:00N 42°40' W 070°07'612.6
2017-Oct-15 23:30N 42°37' W 070°14'612.9
2017-Oct-15 23:00N 42°33' W 070°22'613.0
2017-Oct-15 22:30N 42°30' W 070°29'713.2
2017-Oct-15 22:00N 42°26' W 070°37'613.1
2017-Oct-15 21:30N 42°25' W 070°45'612.6
2017-Oct-15 21:00N 42°23' W 070°53'510.7
2017-Oct-15 20:30N 42°20' W 070°60'2 3.7
2017-Oct-15 20:00N 42°21' W 071°02'0 0.0
2017-Oct-15 19:29N 42°21' W 071°02'0 0.0
2017-Oct-15 18:59N 42°21' W 071°02'0 0.0
2017-Oct-15 18:29N 42°21' W 071°02'0 0.0
2017-Oct-15 17:59N 42°21' W 071°02'0 0.0
2017-Oct-15 17:29N 42°21' W 071°02'0 0.0
2017-Oct-15 16:59N 42°21' W 071°02'0 0.0
2017-Oct-15 16:29N 42°21' W 071°02'0 0.0
2017-Oct-15 15:59N 42°21' W 071°02'0 0.0
2017-Oct-15 15:29N 42°21' W 071°02'0 0.0
2017-Oct-15 14:59N 42°21' W 071°02'0 0.0
2017-Oct-15 13:59N 42°21' W 071°02'0 0.0
2017-Oct-15 13:29N 42°21' W 071°02'0 0.0
2017-Oct-15 12:59N 42°21' W 071°02'0 0.0
2017-Oct-15 12:29N 42°21' W 071°02'0 0.0
2017-Oct-15 11:59N 42°21' W 071°02'0 0.0
2017-Oct-15 11:29N 42°21' W 071°02'0 0.0
2017-Oct-15 10:59N 42°21' W 071°02'1 2.3
2017-Oct-15 10:30N 42°21' W 071°01'4 7.7
2017-Oct-15 10:00N 42°22' W 070°56'510.0
2017-Oct-15 09:30N 42°24' W 070°50'4 8.6
2017-Oct-15 09:00N 42°23' W 070°44'510.6
2017-Oct-15 08:30N 42°22' W 070°37'510.4
2017-Oct-15 08:00N 42°21' W 070°30'5 9.6
2017-Oct-15 07:30N 42°21' W 070°23'5 9.2
2017-Oct-15 07:00N 42°21' W 070°17'510.2
2017-Oct-15 06:30N 42°20' W 070°10'510.3
2017-Oct-15 06:00N 42°20' W 070°03'710.4
2017-Oct-15 05:19N 42°21' W 069°54'1010.1
2017-Oct-15 04:20N 42°23' W 069°41'  
2017-Oct-09 08:09N 43°49' W 068°21'414.3
2017-Oct-09 07:54N 43°46' W 068°24'614.1
2017-Oct-09 07:29N 43°42' W 068°29'814.1
2017-Oct-09 06:54N 43°35' W 068°36'7913.6
2017-Oct-09 01:04N 42°45' W 070°00'113.7
2017-Oct-09 01:00N 42°44' W 070°01'713.4
2017-Oct-09 00:31N 42°40' W 070°08'713.2
2017-Oct-09 00:00N 42°36' W 070°15'713.4
2017-Oct-08 23:30N 42°33' W 070°23'713.6
2017-Oct-08 23:01N 42°29' W 070°31'713.5
2017-Oct-08 22:31N 42°26' W 070°39'713.7
2017-Oct-08 22:01N 42°24' W 070°48'612.7
2017-Oct-08 21:30N 42°22' W 070°56'4 8.0
2017-Oct-08 21:01N 42°21' W 071°01'1 1.6
2017-Oct-08 20:30N 42°21' W 071°02'0 0.0
2017-Oct-08 20:00N 42°21' W 071°02'0 0.0
2017-Oct-08 19:30N 42°21' W 071°02'0 0.0
2017-Oct-08 19:00N 42°21' W 071°02'0 0.0
2017-Oct-08 18:30N 42°21' W 071°02'0 0.0
2017-Oct-08 18:00N 42°21' W 071°02'0 0.0
2017-Oct-08 17:30N 42°21' W 071°02'0 0.0
2017-Oct-08 17:00N 42°21' W 071°02'0 0.0
2017-Oct-08 16:30N 42°21' W 071°02'0 0.0
2017-Oct-08 16:00N 42°21' W 071°02'0 0.0
2017-Oct-08 15:30N 42°21' W 071°02'0 0.0
2017-Oct-08 15:00N 42°21' W 071°02'0 0.0
2017-Oct-08 14:30N 42°21' W 071°02'0 0.0
2017-Oct-08 14:00N 42°21' W 071°02'0 0.0
2017-Oct-08 13:30N 42°21' W 071°02'0 0.0
2017-Oct-08 13:00N 42°21' W 071°02'0 0.0
2017-Oct-08 12:27N 42°21' W 071°02'0 0.0
2017-Oct-08 12:00N 42°21' W 071°02'0 0.0
2017-Oct-08 11:30N 42°21' W 071°02'0 0.0
2017-Oct-08 11:00N 42°21' W 071°02'1 1.8
2017-Oct-08 10:30N 42°21' W 071°01'4 8.3
2017-Oct-08 10:00N 42°22' W 070°55'510.2
2017-Oct-08 09:30N 42°24' W 070°49'611.6
2017-Oct-08 09:01N 42°25' W 070°41'815.7
2017-Oct-08 08:31N 42°28' W 070°32'815.8
2017-Oct-08 08:01N 42°32' W 070°23'815.7
2017-Oct-08 07:31N 42°37' W 070°14'815.6
2017-Oct-08 07:00N 42°42' W 070°06'3616.0
2017-Oct-08 04:46N 43°05' W 069°28'42 1.8
2017-Oct-07 04:44N 43°33' W 068°44'2 9.6
2017-Oct-07 04:30N 43°32' W 068°47'  

Dump ship's entire track history